sensor_id;sensor_type;location;lat;lon;timestamp;P1;durP1;ratioP1;P2;durP2;ratioP2
53650;SDS011;39552;45.776;15.892;2023-01-05T00:01:45;39.10;;;30.35;;
53650;SDS011;39552;45.776;15.892;2023-01-05T00:04:25;39.47;;;30.35;;
53650;SDS011;39552;45.776;15.892;2023-01-05T00:10:28;40.65;;;30.88;;
53650;SDS011;39552;45.776;15.892;2023-01-05T00:13:10;41.47;;;30.10;;
53650;SDS011;39552;45.776;15.892;2023-01-05T00:16:01;44.90;;;32.15;;
53650;SDS011;39552;45.776;15.892;2023-01-05T00:18:48;40.28;;;30.35;;
53650;SDS011;39552;45.776;15.892;2023-01-05T00:21:18;47.63;;;32.20;;
53650;SDS011;39552;45.776;15.892;2023-01-05T00:23:59;44.55;;;33.92;;
53650;SDS011;39552;45.776;15.892;2023-01-05T00:26:42;46.00;;;32.55;;
53650;SDS011;39552;45.776;15.892;2023-01-05T00:29:21;45.97;;;33.42;;
53650;SDS011;39552;45.776;15.892;2023-01-05T00:31:57;51.35;;;35.03;;
53650;SDS011;39552;45.776;15.892;2023-01-05T00:34:36;52.65;;;37.13;;
53650;SDS011;39552;45.776;15.892;2023-01-05T00:37:27;39.47;;;31.02;;
53650;SDS011;39552;45.776;15.892;2023-01-05T00:40:06;44.35;;;32.53;;
53650;SDS011;39552;45.776;15.892;2023-01-05T00:42:49;43.45;;;33.20;;
53650;SDS011;39552;45.776;15.892;2023-01-05T00:45:19;44.72;;;34.50;;
53650;SDS011;39552;45.776;15.892;2023-01-05T00:47:48;45.50;;;34.00;;
53650;SDS011;39552;45.776;15.892;2023-01-05T00:50:27;47.60;;;36.28;;
53650;SDS011;39552;45.776;15.892;2023-01-05T00:53:07;52.38;;;38.47;;
53650;SDS011;39552;45.776;15.892;2023-01-05T00:56:03;56.08;;;41.20;;
53650;SDS011;39552;45.776;15.892;2023-01-05T00:58:40;58.35;;;41.63;;
53650;SDS011;39552;45.776;15.892;2023-01-05T01:01:13;57.88;;;42.78;;
53650;SDS011;39552;45.776;15.892;2023-01-05T01:03:58;60.55;;;42.47;;
53650;SDS011;39552;45.776;15.892;2023-01-05T01:06:59;61.97;;;41.13;;
53650;SDS011;39552;45.776;15.892;2023-01-05T01:09:35;58.83;;;43.45;;
53650;SDS011;39552;45.776;15.892;2023-01-05T01:12:14;61.22;;;43.92;;
53650;SDS011;39552;45.776;15.892;2023-01-05T01:18:08;57.20;;;39.58;;
53650;SDS011;39552;45.776;15.892;2023-01-05T01:23:56;53.33;;;40.10;;
53650;SDS011;39552;45.776;15.892;2023-01-05T01:26:38;48.35;;;34.45;;
53650;SDS011;39552;45.776;15.892;2023-01-05T01:29:22;48.88;;;34.33;;
53650;SDS011;39552;45.776;15.892;2023-01-05T01:32:08;52.63;;;37.60;;
53650;SDS011;39552;45.776;15.892;2023-01-05T01:35:01;47.75;;;33.80;;
53650;SDS011;39552;45.776;15.892;2023-01-05T01:37:46;60.47;;;34.40;;
53650;SDS011;39552;45.776;15.892;2023-01-05T01:40:23;111.55;;;29.50;;
53650;SDS011;39552;45.776;15.892;2023-01-05T01:43:01;57.95;;;27.77;;
53650;SDS011;39552;45.776;15.892;2023-01-05T01:45:51;46.55;;;22.45;;
53650;SDS011;39552;45.776;15.892;2023-01-05T01:49:02;52.38;;;20.40;;
53650;SDS011;39552;45.776;15.892;2023-01-05T01:51:41;71.40;;;19.15;;
53650;SDS011;39552;45.776;15.892;2023-01-05T01:54:21;94.63;;;22.02;;
53650;SDS011;39552;45.776;15.892;2023-01-05T01:59:53;30.77;;;19.00;;
53650;SDS011;39552;45.776;15.892;2023-01-05T02:02:36;43.85;;;17.85;;
53650;SDS011;39552;45.776;15.892;2023-01-05T02:05:18;57.38;;;17.52;;
53650;SDS011;39552;45.776;15.892;2023-01-05T02:11:01;49.63;;;17.95;;
53650;SDS011;39552;45.776;15.892;2023-01-05T02:13:56;93.18;;;16.15;;
53650;SDS011;39552;45.776;15.892;2023-01-05T02:16:53;56.00;;;17.45;;
53650;SDS011;39552;45.776;15.892;2023-01-05T02:29:44;18.10;;;12.77;;
53650;SDS011;39552;45.776;15.892;2023-01-05T02:32:39;19.80;;;12.30;;
53650;SDS011;39552;45.776;15.892;2023-01-05T02:35:32;13.85;;;11.95;;
53650;SDS011;39552;45.776;15.892;2023-01-05T02:38:21;14.60;;;11.80;;
53650;SDS011;39552;45.776;15.892;2023-01-05T02:41:06;13.23;;;11.60;;
53650;SDS011;39552;45.776;15.892;2023-01-05T02:44:00;15.30;;;11.23;;
53650;SDS011;39552;45.776;15.892;2023-01-05T02:46:57;13.65;;;11.57;;
53650;SDS011;39552;45.776;15.892;2023-01-05T02:53:16;12.63;;;11.32;;
53650;SDS011;39552;45.776;15.892;2023-01-05T02:56:16;13.57;;;11.32;;
53650;SDS011;39552;45.776;15.892;2023-01-05T02:59:19;13.75;;;11.32;;
53650;SDS011;39552;45.776;15.892;2023-01-05T03:02:18;13.43;;;11.32;;
53650;SDS011;39552;45.776;15.892;2023-01-05T03:05:12;13.40;;;11.70;;
53650;SDS011;39552;45.776;15.892;2023-01-05T03:07:49;12.70;;;11.35;;
53650;SDS011;39552;45.776;15.892;2023-01-05T03:10:41;15.02;;;11.50;;
53650;SDS011;39552;45.776;15.892;2023-01-05T03:13:30;12.75;;;11.07;;
53650;SDS011;39552;45.776;15.892;2023-01-05T03:16:24;13.00;;;11.45;;
53650;SDS011;39552;45.776;15.892;2023-01-05T03:19:07;13.63;;;11.57;;
53650;SDS011;39552;45.776;15.892;2023-01-05T03:21:54;11.80;;;10.60;;
53650;SDS011;39552;45.776;15.892;2023-01-05T03:24:55;11.48;;;10.27;;
53650;SDS011;39552;45.776;15.892;2023-01-05T03:27:42;11.63;;;10.10;;
53650;SDS011;39552;45.776;15.892;2023-01-05T03:30:29;11.75;;;10.23;;
53650;SDS011;39552;45.776;15.892;2023-01-05T03:39:12;13.77;;;11.00;;
53650;SDS011;39552;45.776;15.892;2023-01-05T03:51:03;11.23;;;9.80;;
53650;SDS011;39552;45.776;15.892;2023-01-05T03:53:48;12.18;;;10.55;;
53650;SDS011;39552;45.776;15.892;2023-01-05T03:56:32;10.70;;;9.63;;
53650;SDS011;39552;45.776;15.892;2023-01-05T03:59:13;11.07;;;9.55;;
53650;SDS011;39552;45.776;15.892;2023-01-05T04:02:02;13.50;;;10.07;;
53650;SDS011;39552;45.776;15.892;2023-01-05T04:04:44;11.55;;;10.02;;
53650;SDS011;39552;45.776;15.892;2023-01-05T04:07:31;11.18;;;10.00;;
53650;SDS011;39552;45.776;15.892;2023-01-05T04:10:17;10.70;;;9.50;;
53650;SDS011;39552;45.776;15.892;2023-01-05T04:13:21;11.90;;;10.23;;
53650;SDS011;39552;45.776;15.892;2023-01-05T04:16:09;11.25;;;10.05;;
53650;SDS011;39552;45.776;15.892;2023-01-05T04:19:04;11.13;;;9.95;;
53650;SDS011;39552;45.776;15.892;2023-01-05T04:21:52;12.93;;;10.40;;
53650;SDS011;39552;45.776;15.892;2023-01-05T04:24:31;11.82;;;9.82;;
53650;SDS011;39552;45.776;15.892;2023-01-05T04:27:15;11.00;;;9.90;;
53650;SDS011;39552;45.776;15.892;2023-01-05T04:29:58;12.88;;;10.00;;
53650;SDS011;39552;45.776;15.892;2023-01-05T04:32:47;11.60;;;10.40;;
53650;SDS011;39552;45.776;15.892;2023-01-05T04:35:43;13.68;;;10.77;;
53650;SDS011;39552;45.776;15.892;2023-01-05T04:38:15;12.15;;;10.20;;
53650;SDS011;39552;45.776;15.892;2023-01-05T04:41:02;11.15;;;9.95;;
53650;SDS011;39552;45.776;15.892;2023-01-05T04:43:33;12.18;;;10.50;;
53650;SDS011;39552;45.776;15.892;2023-01-05T04:46:07;12.82;;;10.60;;
53650;SDS011;39552;45.776;15.892;2023-01-05T04:48:59;11.50;;;9.73;;
53650;SDS011;39552;45.776;15.892;2023-01-05T04:51:56;12.35;;;10.77;;
53650;SDS011;39552;45.776;15.892;2023-01-05T04:54:33;10.82;;;9.63;;
53650;SDS011;39552;45.776;15.892;2023-01-05T04:57:10;11.98;;;10.77;;
53650;SDS011;39552;45.776;15.892;2023-01-05T04:59:43;13.30;;;11.02;;
53650;SDS011;39552;45.776;15.892;2023-01-05T05:02:20;11.45;;;10.10;;
53650;SDS011;39552;45.776;15.892;2023-01-05T05:04:52;10.90;;;9.63;;
53650;SDS011;39552;45.776;15.892;2023-01-05T05:07:32;11.25;;;9.48;;
53650;SDS011;39552;45.776;15.892;2023-01-05T05:10:21;9.93;;;8.93;;
53650;SDS011;39552;45.776;15.892;2023-01-05T05:12:49;13.50;;;9.77;;
53650;SDS011;39552;45.776;15.892;2023-01-05T05:15:20;9.70;;;8.73;;
53650;SDS011;39552;45.776;15.892;2023-01-05T05:18:11;10.02;;;9.02;;
53650;SDS011;39552;45.776;15.892;2023-01-05T05:21:02;10.50;;;9.40;;
53650;SDS011;39552;45.776;15.892;2023-01-05T05:26:30;13.25;;;10.50;;
53650;SDS011;39552;45.776;15.892;2023-01-05T05:29:09;10.95;;;9.55;;
53650;SDS011;39552;45.776;15.892;2023-01-05T05:31:48;10.05;;;8.98;;
53650;SDS011;39552;45.776;15.892;2023-01-05T05:37:15;11.38;;;9.25;;
53650;SDS011;39552;45.776;15.892;2023-01-05T05:40:06;12.98;;;9.45;;
53650;SDS011;39552;45.776;15.892;2023-01-05T05:42:47;11.13;;;9.32;;
53650;SDS011;39552;45.776;15.892;2023-01-05T05:45:24;11.38;;;8.85;;
53650;SDS011;39552;45.776;15.892;2023-01-05T05:47:56;11.18;;;8.77;;
53650;SDS011;39552;45.776;15.892;2023-01-05T05:50:37;9.73;;;8.73;;
53650;SDS011;39552;45.776;15.892;2023-01-05T05:53:57;8.98;;;7.30;;
53650;SDS011;39552;45.776;15.892;2023-01-05T05:56:33;8.75;;;7.82;;
53650;SDS011;39552;45.776;15.892;2023-01-05T05:59:24;8.38;;;7.50;;
53650;SDS011;39552;45.776;15.892;2023-01-05T06:02:00;9.77;;;8.15;;
53650;SDS011;39552;45.776;15.892;2023-01-05T06:04:32;8.55;;;7.68;;
53650;SDS011;39552;45.776;15.892;2023-01-05T06:07:10;8.90;;;8.00;;
53650;SDS011;39552;45.776;15.892;2023-01-05T06:09:43;10.20;;;8.10;;
53650;SDS011;39552;45.776;15.892;2023-01-05T06:12:18;10.02;;;7.95;;
53650;SDS011;39552;45.776;15.892;2023-01-05T06:15:09;10.10;;;7.50;;
53650;SDS011;39552;45.776;15.892;2023-01-05T06:17:50;8.50;;;7.70;;
53650;SDS011;39552;45.776;15.892;2023-01-05T06:20:33;10.23;;;8.13;;
53650;SDS011;39552;45.776;15.892;2023-01-05T06:23:08;9.35;;;8.32;;
53650;SDS011;39552;45.776;15.892;2023-01-05T06:25:44;10.70;;;8.95;;
53650;SDS011;39552;45.776;15.892;2023-01-05T06:28:24;11.32;;;9.55;;
53650;SDS011;39552;45.776;15.892;2023-01-05T06:30:54;12.45;;;9.13;;
53650;SDS011;39552;45.776;15.892;2023-01-05T06:33:30;9.77;;;8.77;;
53650;SDS011;39552;45.776;15.892;2023-01-05T06:36:08;10.02;;;8.48;;
53650;SDS011;39552;45.776;15.892;2023-01-05T06:38:45;9.45;;;7.72;;
53650;SDS011;39552;45.776;15.892;2023-01-05T06:41:41;7.95;;;7.15;;
53650;SDS011;39552;45.776;15.892;2023-01-05T06:44:21;7.85;;;7.10;;
53650;SDS011;39552;45.776;15.892;2023-01-05T06:47:28;8.75;;;7.80;;
53650;SDS011;39552;45.776;15.892;2023-01-05T06:50:15;7.78;;;6.97;;
53650;SDS011;39552;45.776;15.892;2023-01-05T06:52:53;8.27;;;7.53;;
53650;SDS011;39552;45.776;15.892;2023-01-05T06:55:23;8.00;;;7.13;;
53650;SDS011;39552;45.776;15.892;2023-01-05T06:58:20;8.45;;;7.55;;
53650;SDS011;39552;45.776;15.892;2023-01-05T07:01:13;9.07;;;8.13;;
53650;SDS011;39552;45.776;15.892;2023-01-05T07:04:01;8.75;;;7.93;;
53650;SDS011;39552;45.776;15.892;2023-01-05T07:06:40;8.75;;;7.85;;
53650;SDS011;39552;45.776;15.892;2023-01-05T07:09:35;8.20;;;7.40;;
53650;SDS011;39552;45.776;15.892;2023-01-05T07:12:06;9.15;;;8.32;;
53650;SDS011;39552;45.776;15.892;2023-01-05T07:14:45;9.48;;;8.50;;
53650;SDS011;39552;45.776;15.892;2023-01-05T07:17:32;9.73;;;8.73;;
53650;SDS011;39552;45.776;15.892;2023-01-05T07:20:18;10.32;;;9.23;;
53650;SDS011;39552;45.776;15.892;2023-01-05T07:23:01;12.35;;;10.13;;
53650;SDS011;39552;45.776;15.892;2023-01-05T07:25:33;11.68;;;10.07;;
53650;SDS011;39552;45.776;15.892;2023-01-05T07:28:12;11.43;;;10.30;;
53650;SDS011;39552;45.776;15.892;2023-01-05T07:30:46;10.65;;;9.55;;
53650;SDS011;39552;45.776;15.892;2023-01-05T07:36:28;14.23;;;10.48;;
53650;SDS011;39552;45.776;15.892;2023-01-05T07:39:01;14.60;;;12.93;;
53650;SDS011;39552;45.776;15.892;2023-01-05T07:41:53;13.48;;;11.10;;
53650;SDS011;39552;45.776;15.892;2023-01-05T07:44:20;9.88;;;8.88;;
53650;SDS011;39552;45.776;15.892;2023-01-05T07:46:51;12.02;;;9.00;;
53650;SDS011;39552;45.776;15.892;2023-01-05T07:49:19;10.07;;;9.13;;
53650;SDS011;39552;45.776;15.892;2023-01-05T07:51:46;10.32;;;9.27;;
53650;SDS011;39552;45.776;15.892;2023-01-05T07:54:12;14.82;;;9.85;;
53650;SDS011;39552;45.776;15.892;2023-01-05T07:56:42;13.90;;;9.80;;
53650;SDS011;39552;45.776;15.892;2023-01-05T07:59:09;11.40;;;9.20;;
53650;SDS011;39552;45.776;15.892;2023-01-05T08:01:35;10.93;;;9.27;;
53650;SDS011;39552;45.776;15.892;2023-01-05T08:04:02;10.55;;;9.23;;
53650;SDS011;39552;45.776;15.892;2023-01-05T08:06:31;12.63;;;9.30;;
53650;SDS011;39552;45.776;15.892;2023-01-05T08:08:59;13.10;;;10.48;;
53650;SDS011;39552;45.776;15.892;2023-01-05T08:11:25;10.73;;;9.40;;
53650;SDS011;39552;45.776;15.892;2023-01-05T08:14:01;10.75;;;9.25;;
53650;SDS011;39552;45.776;15.892;2023-01-05T08:17:11;10.32;;;9.23;;
53650;SDS011;39552;45.776;15.892;2023-01-05T08:19:46;10.57;;;9.57;;
53650;SDS011;39552;45.776;15.892;2023-01-05T08:22:25;12.27;;;9.82;;
53650;SDS011;39552;45.776;15.892;2023-01-05T08:25:10;12.18;;;10.40;;
53650;SDS011;39552;45.776;15.892;2023-01-05T08:27:54;10.90;;;9.73;;
53650;SDS011;39552;45.776;15.892;2023-01-05T08:30:36;13.35;;;10.65;;
53650;SDS011;39552;45.776;15.892;2023-01-05T08:33:07;12.40;;;10.88;;
53650;SDS011;39552;45.776;15.892;2023-01-05T08:35:42;15.68;;;11.05;;
53650;SDS011;39552;45.776;15.892;2023-01-05T08:38:17;12.98;;;11.40;;
53650;SDS011;39552;45.776;15.892;2023-01-05T08:40:46;14.50;;;12.25;;
53650;SDS011;39552;45.776;15.892;2023-01-05T08:46:17;15.55;;;12.75;;
53650;SDS011;39552;45.776;15.892;2023-01-05T08:48:46;14.75;;;11.82;;
53650;SDS011;39552;45.776;15.892;2023-01-05T08:51:14;21.58;;;12.93;;
53650;SDS011;39552;45.776;15.892;2023-01-05T08:53:42;18.23;;;12.73;;
53650;SDS011;39552;45.776;15.892;2023-01-05T08:56:12;19.15;;;14.68;;
53650;SDS011;39552;45.776;15.892;2023-01-05T08:58:40;22.48;;;16.42;;
53650;SDS011;39552;45.776;15.892;2023-01-05T09:01:07;18.33;;;14.63;;
53650;SDS011;39552;45.776;15.892;2023-01-05T09:03:35;16.27;;;13.02;;
53650;SDS011;39552;45.776;15.892;2023-01-05T09:06:08;15.75;;;11.63;;
53650;SDS011;39552;45.776;15.892;2023-01-05T09:08:52;13.45;;;10.95;;
53650;SDS011;39552;45.776;15.892;2023-01-05T09:11:20;13.15;;;11.45;;
53650;SDS011;39552;45.776;15.892;2023-01-05T09:13:49;14.30;;;11.82;;
53650;SDS011;39552;45.776;15.892;2023-01-05T09:16:18;13.77;;;11.63;;
53650;SDS011;39552;45.776;15.892;2023-01-05T09:19:06;16.48;;;13.43;;
53650;SDS011;39552;45.776;15.892;2023-01-05T09:21:34;16.52;;;13.93;;
53650;SDS011;39552;45.776;15.892;2023-01-05T09:24:03;16.50;;;14.23;;
53650;SDS011;39552;45.776;15.892;2023-01-05T09:26:30;18.02;;;13.93;;
53650;SDS011;39552;45.776;15.892;2023-01-05T09:29:00;17.85;;;13.95;;
53650;SDS011;39552;45.776;15.892;2023-01-05T09:31:40;16.45;;;13.65;;
53650;SDS011;39552;45.776;15.892;2023-01-05T09:34:18;17.85;;;14.50;;
53650;SDS011;39552;45.776;15.892;2023-01-05T09:36:54;16.92;;;13.60;;
53650;SDS011;39552;45.776;15.892;2023-01-05T09:39:28;15.20;;;12.85;;
53650;SDS011;39552;45.776;15.892;2023-01-05T09:42:13;14.85;;;12.23;;
53650;SDS011;39552;45.776;15.892;2023-01-05T09:45:09;16.00;;;12.15;;
53650;SDS011;39552;45.776;15.892;2023-01-05T09:48:01;12.38;;;10.45;;
53650;SDS011;39552;45.776;15.892;2023-01-05T09:50:31;12.93;;;11.52;;
53650;SDS011;39552;45.776;15.892;2023-01-05T09:56:04;15.85;;;12.68;;
53650;SDS011;39552;45.776;15.892;2023-01-05T09:59:22;15.85;;;12.63;;
53650;SDS011;39552;45.776;15.892;2023-01-05T10:02:03;13.90;;;11.82;;
53650;SDS011;39552;45.776;15.892;2023-01-05T10:05:00;14.55;;;11.75;;
53650;SDS011;39552;45.776;15.892;2023-01-05T10:07:37;15.05;;;12.02;;
53650;SDS011;39552;45.776;15.892;2023-01-05T10:10:29;14.63;;;11.95;;
53650;SDS011;39552;45.776;15.892;2023-01-05T10:13:27;18.02;;;12.27;;
53650;SDS011;39552;45.776;15.892;2023-01-05T10:16:17;12.80;;;11.02;;
53650;SDS011;39552;45.776;15.892;2023-01-05T10:19:15;15.15;;;12.23;;
53650;SDS011;39552;45.776;15.892;2023-01-05T10:21:59;15.55;;;11.77;;
53650;SDS011;39552;45.776;15.892;2023-01-05T10:24:40;17.02;;;11.98;;
53650;SDS011;39552;45.776;15.892;2023-01-05T10:27:40;17.38;;;12.82;;
53650;SDS011;39552;45.776;15.892;2023-01-05T10:33:48;15.13;;;11.85;;
53650;SDS011;39552;45.776;15.892;2023-01-05T10:36:59;12.90;;;11.40;;
53650;SDS011;39552;45.776;15.892;2023-01-05T10:46:24;18.25;;;12.43;;
53650;SDS011;39552;45.776;15.892;2023-01-05T10:52:36;23.70;;;15.63;;
53650;SDS011;39552;45.776;15.892;2023-01-05T10:55:14;20.17;;;16.17;;
53650;SDS011;39552;45.776;15.892;2023-01-05T10:58:27;17.80;;;14.27;;
53650;SDS011;39552;45.776;15.892;2023-01-05T11:01:21;18.95;;;12.43;;
53650;SDS011;39552;45.776;15.892;2023-01-05T11:07:06;13.38;;;10.48;;
53650;SDS011;39552;45.776;15.892;2023-01-05T11:09:55;14.00;;;10.32;;
53650;SDS011;39552;45.776;15.892;2023-01-05T11:12:57;13.13;;;9.85;;
53650;SDS011;39552;45.776;15.892;2023-01-05T11:15:51;17.25;;;10.18;;
53650;SDS011;39552;45.776;15.892;2023-01-05T11:18:52;14.55;;;10.02;;
53650;SDS011;39552;45.776;15.892;2023-01-05T11:22:00;15.63;;;10.20;;
53650;SDS011;39552;45.776;15.892;2023-01-05T11:28:09;16.92;;;10.82;;
53650;SDS011;39552;45.776;15.892;2023-01-05T11:38:03;9.82;;;8.20;;
53650;SDS011;39552;45.776;15.892;2023-01-05T11:41:04;9.93;;;8.07;;
53650;SDS011;39552;45.776;15.892;2023-01-05T11:43:37;10.90;;;7.95;;
53650;SDS011;39552;45.776;15.892;2023-01-05T11:46:19;10.68;;;8.02;;
53650;SDS011;39552;45.776;15.892;2023-01-05T11:49:25;9.13;;;7.85;;
53650;SDS011;39552;45.776;15.892;2023-01-05T11:52:28;9.55;;;7.65;;
53650;SDS011;39552;45.776;15.892;2023-01-05T11:58:41;12.25;;;8.65;;
53650;SDS011;39552;45.776;15.892;2023-01-05T12:05:16;13.65;;;8.23;;
53650;SDS011;39552;45.776;15.892;2023-01-05T12:08:22;9.98;;;7.50;;
53650;SDS011;39552;45.776;15.892;2023-01-05T12:11:16;10.00;;;6.65;;
53650;SDS011;39552;45.776;15.892;2023-01-05T12:14:07;6.53;;;5.30;;
53650;SDS011;39552;45.776;15.892;2023-01-05T12:17:07;6.80;;;4.97;;
53650;SDS011;39552;45.776;15.892;2023-01-05T12:20:18;7.15;;;5.10;;
53650;SDS011;39552;45.776;15.892;2023-01-05T12:26:42;7.28;;;4.72;;
53650;SDS011;39552;45.776;15.892;2023-01-05T12:29:56;5.72;;;4.78;;
53650;SDS011;39552;45.776;15.892;2023-01-05T12:33:06;5.38;;;4.82;;
53650;SDS011;39552;45.776;15.892;2023-01-05T12:36:13;6.75;;;5.20;;
53650;SDS011;39552;45.776;15.892;2023-01-05T12:38:54;6.03;;;5.00;;
53650;SDS011;39552;45.776;15.892;2023-01-05T12:42:05;10.25;;;5.20;;
53650;SDS011;39552;45.776;15.892;2023-01-05T12:44:48;5.65;;;5.15;;
53650;SDS011;39552;45.776;15.892;2023-01-05T12:47:42;7.93;;;5.50;;
53650;SDS011;39552;45.776;15.892;2023-01-05T12:50:19;9.32;;;5.30;;
53650;SDS011;39552;45.776;15.892;2023-01-05T12:52:56;7.60;;;5.53;;
53650;SDS011;39552;45.776;15.892;2023-01-05T12:55:35;5.30;;;4.70;;
53650;SDS011;39552;45.776;15.892;2023-01-05T12:58:24;5.55;;;5.00;;
53650;SDS011;39552;45.776;15.892;2023-01-05T13:00:54;8.32;;;5.35;;
53650;SDS011;39552;45.776;15.892;2023-01-05T13:03:26;6.88;;;5.05;;
53650;SDS011;39552;45.776;15.892;2023-01-05T13:06:17;5.38;;;4.55;;
53650;SDS011;39552;45.776;15.892;2023-01-05T13:08:55;5.60;;;4.60;;
53650;SDS011;39552;45.776;15.892;2023-01-05T13:12:03;5.40;;;4.88;;
53650;SDS011;39552;45.776;15.892;2023-01-05T13:14:59;5.35;;;4.25;;
53650;SDS011;39552;45.776;15.892;2023-01-05T13:21:01;4.63;;;4.03;;
53650;SDS011;39552;45.776;15.892;2023-01-05T13:26:45;4.85;;;4.18;;
53650;SDS011;39552;45.776;15.892;2023-01-05T13:29:25;4.57;;;4.18;;
53650;SDS011;39552;45.776;15.892;2023-01-05T13:32:23;4.32;;;3.90;;
53650;SDS011;39552;45.776;15.892;2023-01-05T13:38:56;5.40;;;3.83;;
53650;SDS011;39552;45.776;15.892;2023-01-05T13:41:56;4.32;;;3.92;;
53650;SDS011;39552;45.776;15.892;2023-01-05T14:01:34;3.42;;;3.00;;
53650;SDS011;39552;45.776;15.892;2023-01-05T14:04:55;3.60;;;3.20;;
53650;SDS011;39552;45.776;15.892;2023-01-05T14:07:55;3.88;;;3.47;;
53650;SDS011;39552;45.776;15.892;2023-01-05T14:11:05;3.53;;;3.13;;
53650;SDS011;39552;45.776;15.892;2023-01-05T14:24:40;3.75;;;3.38;;
53650;SDS011;39552;45.776;15.892;2023-01-05T14:37:13;3.15;;;2.85;;
53650;SDS011;39552;45.776;15.892;2023-01-05T14:40:24;3.50;;;3.20;;
53650;SDS011;39552;45.776;15.892;2023-01-05T14:46:46;3.35;;;3.05;;
53650;SDS011;39552;45.776;15.892;2023-01-05T14:56:25;2.85;;;2.63;;
53650;SDS011;39552;45.776;15.892;2023-01-05T14:59:13;3.70;;;3.40;;
53650;SDS011;39552;45.776;15.892;2023-01-05T15:02:12;3.10;;;2.80;;
53650;SDS011;39552;45.776;15.892;2023-01-05T15:05:15;3.05;;;2.85;;
53650;SDS011;39552;45.776;15.892;2023-01-05T15:23:07;3.92;;;3.55;;
53650;SDS011;39552;45.776;15.892;2023-01-05T15:25:56;4.20;;;3.38;;
53650;SDS011;39552;45.776;15.892;2023-01-05T15:28:51;5.68;;;3.50;;
53650;SDS011;39552;45.776;15.892;2023-01-05T15:31:32;3.30;;;3.10;;
53650;SDS011;39552;45.776;15.892;2023-01-05T15:34:10;4.22;;;3.17;;
53650;SDS011;39552;45.776;15.892;2023-01-05T15:36:45;3.30;;;3.08;;
53650;SDS011;39552;45.776;15.892;2023-01-05T15:39:27;3.85;;;3.55;;
53650;SDS011;39552;45.776;15.892;2023-01-05T15:41:57;3.80;;;3.38;;
53650;SDS011;39552;45.776;15.892;2023-01-05T15:44:29;3.30;;;3.00;;
53650;SDS011;39552;45.776;15.892;2023-01-05T15:46:59;3.50;;;3.20;;
53650;SDS011;39552;45.776;15.892;2023-01-05T15:49:30;4.68;;;3.17;;
53650;SDS011;39552;45.776;15.892;2023-01-05T15:51:59;4.63;;;3.60;;
53650;SDS011;39552;45.776;15.892;2023-01-05T15:54:27;3.50;;;3.20;;
53650;SDS011;39552;45.776;15.892;2023-01-05T15:56:55;3.50;;;3.20;;
53650;SDS011;39552;45.776;15.892;2023-01-05T15:59:30;5.50;;;3.42;;
53650;SDS011;39552;45.776;15.892;2023-01-05T16:01:59;3.92;;;3.53;;
53650;SDS011;39552;45.776;15.892;2023-01-05T16:04:26;7.53;;;3.75;;
53650;SDS011;39552;45.776;15.892;2023-01-05T16:06:57;5.03;;;4.03;;
53650;SDS011;39552;45.776;15.892;2023-01-05T16:09:26;5.90;;;4.63;;
53650;SDS011;39552;45.776;15.892;2023-01-05T16:11:57;5.10;;;4.60;;
53650;SDS011;39552;45.776;15.892;2023-01-05T16:14:27;4.85;;;4.35;;
53650;SDS011;39552;45.776;15.892;2023-01-05T16:16:59;5.68;;;4.70;;
53650;SDS011;39552;45.776;15.892;2023-01-05T16:19:31;6.32;;;4.03;;
53650;SDS011;39552;45.776;15.892;2023-01-05T16:22:02;7.07;;;4.32;;
53650;SDS011;39552;45.776;15.892;2023-01-05T16:24:36;4.70;;;3.95;;
53650;SDS011;39552;45.776;15.892;2023-01-05T16:27:09;4.85;;;4.32;;
53650;SDS011;39552;45.776;15.892;2023-01-05T16:29:38;6.88;;;4.07;;
53650;SDS011;39552;45.776;15.892;2023-01-05T16:40:58;4.90;;;4.07;;
53650;SDS011;39552;45.776;15.892;2023-01-05T16:43:34;4.45;;;3.97;;
53650;SDS011;39552;45.776;15.892;2023-01-05T16:49:00;6.78;;;4.57;;
53650;SDS011;39552;45.776;15.892;2023-01-05T16:51:35;5.20;;;4.68;;
53650;SDS011;39552;45.776;15.892;2023-01-05T16:54:11;5.38;;;4.25;;
53650;SDS011;39552;45.776;15.892;2023-01-05T16:56:53;5.20;;;4.28;;
53650;SDS011;39552;45.776;15.892;2023-01-05T16:59:34;5.28;;;4.57;;
53650;SDS011;39552;45.776;15.892;2023-01-05T17:02:30;5.95;;;4.70;;
53650;SDS011;39552;45.776;15.892;2023-01-05T17:05:15;6.57;;;4.65;;
53650;SDS011;39552;45.776;15.892;2023-01-05T17:10:14;5.68;;;4.80;;
53650;SDS011;39552;45.776;15.892;2023-01-05T17:12:51;5.25;;;4.60;;
53650;SDS011;39552;45.776;15.892;2023-01-05T17:15:21;6.53;;;5.00;;
53650;SDS011;39552;45.776;15.892;2023-01-05T17:17:52;6.07;;;4.88;;
53650;SDS011;39552;45.776;15.892;2023-01-05T17:20:18;7.88;;;5.30;;
53650;SDS011;39552;45.776;15.892;2023-01-05T17:22:45;7.03;;;5.32;;
53650;SDS011;39552;45.776;15.892;2023-01-05T17:25:12;6.05;;;4.85;;
53650;SDS011;39552;45.776;15.892;2023-01-05T17:27:40;7.35;;;5.13;;
53650;SDS011;39552;45.776;15.892;2023-01-05T17:30:11;5.93;;;5.10;;
53650;SDS011;39552;45.776;15.892;2023-01-05T17:32:41;6.10;;;5.50;;
53650;SDS011;39552;45.776;15.892;2023-01-05T17:35:08;6.20;;;5.60;;
53650;SDS011;39552;45.776;15.892;2023-01-05T17:37:35;5.25;;;4.75;;
53650;SDS011;39552;45.776;15.892;2023-01-05T17:40:02;5.63;;;5.10;;
53650;SDS011;39552;45.776;15.892;2023-01-05T17:42:29;6.93;;;5.43;;
53650;SDS011;39552;45.776;15.892;2023-01-05T17:44:57;5.88;;;5.25;;
53650;SDS011;39552;45.776;15.892;2023-01-05T17:47:24;7.10;;;5.13;;
53650;SDS011;39552;45.776;15.892;2023-01-05T17:49:52;7.35;;;5.30;;
53650;SDS011;39552;45.776;15.892;2023-01-05T17:52:18;5.25;;;4.68;;
53650;SDS011;39552;45.776;15.892;2023-01-05T17:54:45;5.63;;;4.57;;
53650;SDS011;39552;45.776;15.892;2023-01-05T17:57:12;5.32;;;4.82;;
53650;SDS011;39552;45.776;15.892;2023-01-05T17:59:38;5.45;;;4.65;;
53650;SDS011;39552;45.776;15.892;2023-01-05T18:02:07;6.65;;;4.72;;
53650;SDS011;39552;45.776;15.892;2023-01-05T18:07:01;16.50;;;10.32;;
53650;SDS011;39552;45.776;15.892;2023-01-05T18:09:28;19.50;;;13.65;;
53650;SDS011;39552;45.776;15.892;2023-01-05T18:11:55;17.65;;;14.20;;
53650;SDS011;39552;45.776;15.892;2023-01-05T18:14:21;18.05;;;13.73;;
53650;SDS011;39552;45.776;15.892;2023-01-05T18:16:48;20.10;;;13.68;;
53650;SDS011;39552;45.776;15.892;2023-01-05T18:19:16;16.52;;;12.43;;
53650;SDS011;39552;45.776;15.892;2023-01-05T18:21:42;17.33;;;13.10;;
53650;SDS011;39552;45.776;15.892;2023-01-05T18:24:09;17.23;;;12.30;;
53650;SDS011;39552;45.776;15.892;2023-01-05T18:26:36;19.42;;;12.52;;
53650;SDS011;39552;45.776;15.892;2023-01-05T18:29:02;16.40;;;12.40;;
53650;SDS011;39552;45.776;15.892;2023-01-05T18:31:35;18.25;;;12.43;;
53650;SDS011;39552;45.776;15.892;2023-01-05T18:34:07;18.02;;;12.13;;
53650;SDS011;39552;45.776;15.892;2023-01-05T18:36:35;16.50;;;9.52;;
53650;SDS011;39552;45.776;15.892;2023-01-05T18:39:01;10.65;;;8.27;;
53650;SDS011;39552;45.776;15.892;2023-01-05T18:41:28;9.98;;;8.02;;
53650;SDS011;39552;45.776;15.892;2023-01-05T18:43:55;7.45;;;6.55;;
53650;SDS011;39552;45.776;15.892;2023-01-05T18:46:22;7.75;;;6.93;;
53650;SDS011;39552;45.776;15.892;2023-01-05T18:48:49;10.48;;;7.25;;
53650;SDS011;39552;45.776;15.892;2023-01-05T18:51:16;6.18;;;5.57;;